sensor_id;sensor_type;location;lat;lon;timestamp;P1;durP1;ratioP1;P2;durP2;ratioP2
5042;SDS011;2540;50.928;6.856;2023-09-18T00:00:13;8.40;;;5.43;;
5042;SDS011;2540;50.928;6.856;2023-09-18T00:02:38;12.23;;;5.30;;
5042;SDS011;2540;50.928;6.856;2023-09-18T00:05:04;8.17;;;5.80;;
5042;SDS011;2540;50.928;6.856;2023-09-18T00:07:30;12.43;;;5.83;;
5042;SDS011;2540;50.928;6.856;2023-09-18T00:09:55;11.00;;;6.17;;
5042;SDS011;2540;50.928;6.856;2023-09-18T00:12:20;18.97;;;6.43;;
5042;SDS011;2540;50.928;6.856;2023-09-18T00:14:49;8.77;;;6.00;;
5042;SDS011;2540;50.928;6.856;2023-09-18T00:17:14;7.90;;;5.67;;
5042;SDS011;2540;50.928;6.856;2023-09-18T00:19:41;9.00;;;5.80;;
5042;SDS011;2540;50.928;6.856;2023-09-18T00:22:07;9.47;;;5.10;;
5042;SDS011;2540;50.928;6.856;2023-09-18T00:24:32;10.93;;;6.10;;
5042;SDS011;2540;50.928;6.856;2023-09-18T00:26:58;12.10;;;5.90;;
5042;SDS011;2540;50.928;6.856;2023-09-18T00:29:24;8.77;;;5.10;;
5042;SDS011;2540;50.928;6.856;2023-09-18T00:31:49;9.67;;;5.83;;
5042;SDS011;2540;50.928;6.856;2023-09-18T00:34:14;10.90;;;5.80;;
5042;SDS011;2540;50.928;6.856;2023-09-18T00:36:40;11.13;;;6.30;;
5042;SDS011;2540;50.928;6.856;2023-09-18T00:39:05;13.67;;;6.20;;
5042;SDS011;2540;50.928;6.856;2023-09-18T00:41:31;15.57;;;5.60;;
5042;SDS011;2540;50.928;6.856;2023-09-18T00:43:56;17.10;;;5.27;;
5042;SDS011;2540;50.928;6.856;2023-09-18T00:46:22;13.70;;;5.93;;
5042;SDS011;2540;50.928;6.856;2023-09-18T00:48:47;8.83;;;6.03;;
5042;SDS011;2540;50.928;6.856;2023-09-18T00:51:13;9.17;;;5.63;;
5042;SDS011;2540;50.928;6.856;2023-09-18T00:53:41;7.87;;;5.50;;
5042;SDS011;2540;50.928;6.856;2023-09-18T00:56:08;10.60;;;5.80;;
5042;SDS011;2540;50.928;6.856;2023-09-18T00:58:35;14.77;;;6.07;;
5042;SDS011;2540;50.928;6.856;2023-09-18T01:01:00;10.10;;;6.57;;
5042;SDS011;2540;50.928;6.856;2023-09-18T01:03:25;7.60;;;5.40;;
5042;SDS011;2540;50.928;6.856;2023-09-18T01:05:51;11.33;;;6.50;;
5042;SDS011;2540;50.928;6.856;2023-09-18T01:08:16;12.90;;;6.80;;
5042;SDS011;2540;50.928;6.856;2023-09-18T01:10:48;9.87;;;5.73;;
5042;SDS011;2540;50.928;6.856;2023-09-18T01:13:23;12.30;;;6.20;;
5042;SDS011;2540;50.928;6.856;2023-09-18T01:16:03;8.50;;;5.00;;
5042;SDS011;2540;50.928;6.856;2023-09-18T01:18:33;14.00;;;5.90;;
5042;SDS011;2540;50.928;6.856;2023-09-18T01:20:59;13.53;;;6.40;;
5042;SDS011;2540;50.928;6.856;2023-09-18T01:23:24;23.37;;;5.87;;
5042;SDS011;2540;50.928;6.856;2023-09-18T01:25:49;16.70;;;5.57;;
5042;SDS011;2540;50.928;6.856;2023-09-18T01:28:14;13.80;;;6.00;;
5042;SDS011;2540;50.928;6.856;2023-09-18T01:30:41;12.57;;;6.37;;
5042;SDS011;2540;50.928;6.856;2023-09-18T01:33:07;15.73;;;5.80;;
5042;SDS011;2540;50.928;6.856;2023-09-18T01:35:33;20.43;;;5.80;;
5042;SDS011;2540;50.928;6.856;2023-09-18T01:37:59;10.07;;;5.67;;
5042;SDS011;2540;50.928;6.856;2023-09-18T01:40:25;13.10;;;5.90;;
5042;SDS011;2540;50.928;6.856;2023-09-18T01:42:51;8.23;;;5.00;;
5042;SDS011;2540;50.928;6.856;2023-09-18T01:45:17;7.63;;;5.40;;
5042;SDS011;2540;50.928;6.856;2023-09-18T01:47:42;8.10;;;5.67;;
5042;SDS011;2540;50.928;6.856;2023-09-18T01:50:07;12.50;;;5.80;;
5042;SDS011;2540;50.928;6.856;2023-09-18T01:52:33;9.60;;;6.67;;
5042;SDS011;2540;50.928;6.856;2023-09-18T01:55:01;8.70;;;5.30;;
5042;SDS011;2540;50.928;6.856;2023-09-18T01:57:29;8.03;;;5.27;;
5042;SDS011;2540;50.928;6.856;2023-09-18T01:59:54;7.33;;;4.90;;
5042;SDS011;2540;50.928;6.856;2023-09-18T02:02:20;12.13;;;6.07;;
5042;SDS011;2540;50.928;6.856;2023-09-18T02:04:45;11.73;;;6.60;;
5042;SDS011;2540;50.928;6.856;2023-09-18T02:07:10;11.77;;;5.40;;
5042;SDS011;2540;50.928;6.856;2023-09-18T02:09:36;13.60;;;5.17;;
5042;SDS011;2540;50.928;6.856;2023-09-18T02:12:01;10.60;;;5.37;;
5042;SDS011;2540;50.928;6.856;2023-09-18T02:14:27;6.57;;;5.03;;
5042;SDS011;2540;50.928;6.856;2023-09-18T02:16:55;15.00;;;6.57;;
5042;SDS011;2540;50.928;6.856;2023-09-18T02:19:21;10.50;;;6.27;;
5042;SDS011;2540;50.928;6.856;2023-09-18T02:21:46;11.10;;;6.10;;
5042;SDS011;2540;50.928;6.856;2023-09-18T02:24:11;12.27;;;5.10;;
5042;SDS011;2540;50.928;6.856;2023-09-18T02:26:37;7.90;;;5.07;;
5042;SDS011;2540;50.928;6.856;2023-09-18T02:29:04;10.33;;;6.10;;
5042;SDS011;2540;50.928;6.856;2023-09-18T02:31:31;15.00;;;5.50;;
5042;SDS011;2540;50.928;6.856;2023-09-18T02:33:56;10.47;;;5.20;;
5042;SDS011;2540;50.928;6.856;2023-09-18T02:36:22;9.10;;;5.70;;
5042;SDS011;2540;50.928;6.856;2023-09-18T02:38:47;9.87;;;4.93;;
5042;SDS011;2540;50.928;6.856;2023-09-18T02:41:12;11.27;;;6.20;;
5042;SDS011;2540;50.928;6.856;2023-09-18T02:43:37;9.40;;;5.80;;
5042;SDS011;2540;50.928;6.856;2023-09-18T02:46:03;10.23;;;6.07;;
5042;SDS011;2540;50.928;6.856;2023-09-18T02:48:30;11.87;;;5.43;;
5042;SDS011;2540;50.928;6.856;2023-09-18T02:50:55;9.87;;;5.60;;
5042;SDS011;2540;50.928;6.856;2023-09-18T02:53:22;11.23;;;6.20;;
5042;SDS011;2540;50.928;6.856;2023-09-18T02:55:49;20.47;;;6.70;;
5042;SDS011;2540;50.928;6.856;2023-09-18T02:58:15;11.13;;;5.60;;
5042;SDS011;2540;50.928;6.856;2023-09-18T03:00:46;8.50;;;5.63;;
5042;SDS011;2540;50.928;6.856;2023-09-18T03:03:12;10.97;;;6.27;;
5042;SDS011;2540;50.928;6.856;2023-09-18T03:05:38;11.77;;;6.33;;
5042;SDS011;2540;50.928;6.856;2023-09-18T03:08:04;15.10;;;6.77;;
5042;SDS011;2540;50.928;6.856;2023-09-18T03:10:33;13.43;;;7.00;;
5042;SDS011;2540;50.928;6.856;2023-09-18T03:12:59;19.53;;;7.77;;
5042;SDS011;2540;50.928;6.856;2023-09-18T03:15:25;12.67;;;6.50;;
5042;SDS011;2540;50.928;6.856;2023-09-18T03:17:50;13.20;;;6.50;;
5042;SDS011;2540;50.928;6.856;2023-09-18T03:20:16;11.50;;;6.70;;
5042;SDS011;2540;50.928;6.856;2023-09-18T03:22:41;10.80;;;6.50;;
5042;SDS011;2540;50.928;6.856;2023-09-18T03:25:06;20.73;;;7.67;;
5042;SDS011;2540;50.928;6.856;2023-09-18T03:27:32;11.63;;;6.13;;
5042;SDS011;2540;50.928;6.856;2023-09-18T03:29:57;11.33;;;6.07;;
5042;SDS011;2540;50.928;6.856;2023-09-18T03:32:23;10.17;;;5.80;;
5042;SDS011;2540;50.928;6.856;2023-09-18T03:34:52;8.10;;;5.73;;
5042;SDS011;2540;50.928;6.856;2023-09-18T03:37:17;12.63;;;6.00;;
5042;SDS011;2540;50.928;6.856;2023-09-18T03:39:43;11.53;;;5.40;;
5042;SDS011;2540;50.928;6.856;2023-09-18T03:42:08;16.03;;;6.37;;
5042;SDS011;2540;50.928;6.856;2023-09-18T03:44:34;12.13;;;5.57;;
5042;SDS011;2540;50.928;6.856;2023-09-18T03:46:59;16.67;;;5.80;;
5042;SDS011;2540;50.928;6.856;2023-09-18T03:49:24;9.77;;;4.70;;
5042;SDS011;2540;50.928;6.856;2023-09-18T03:51:50;7.43;;;4.40;;
5042;SDS011;2540;50.928;6.856;2023-09-18T03:54:15;8.07;;;4.40;;
5042;SDS011;2540;50.928;6.856;2023-09-18T03:56:40;11.93;;;5.03;;
5042;SDS011;2540;50.928;6.856;2023-09-18T03:59:06;17.00;;;4.73;;
5042;SDS011;2540;50.928;6.856;2023-09-18T04:01:31;8.53;;;4.00;;
5042;SDS011;2540;50.928;6.856;2023-09-18T04:03:57;8.40;;;3.87;;
5042;SDS011;2540;50.928;6.856;2023-09-18T04:06:23;9.60;;;3.60;;
5042;SDS011;2540;50.928;6.856;2023-09-18T04:08:51;6.30;;;3.80;;
5042;SDS011;2540;50.928;6.856;2023-09-18T04:11:17;16.73;;;4.43;;
5042;SDS011;2540;50.928;6.856;2023-09-18T04:13:44;5.73;;;4.03;;
5042;SDS011;2540;50.928;6.856;2023-09-18T04:16:09;10.03;;;3.90;;
5042;SDS011;2540;50.928;6.856;2023-09-18T04:18:38;15.33;;;4.10;;
5042;SDS011;2540;50.928;6.856;2023-09-18T04:21:04;14.60;;;3.90;;
5042;SDS011;2540;50.928;6.856;2023-09-18T04:23:29;11.33;;;3.83;;
5042;SDS011;2540;50.928;6.856;2023-09-18T04:25:54;12.27;;;4.60;;
5042;SDS011;2540;50.928;6.856;2023-09-18T04:28:21;8.10;;;4.40;;
5042;SDS011;2540;50.928;6.856;2023-09-18T04:30:47;9.27;;;4.60;;
5042;SDS011;2540;50.928;6.856;2023-09-18T04:33:13;15.10;;;5.10;;
5042;SDS011;2540;50.928;6.856;2023-09-18T04:35:39;8.70;;;4.27;;
5042;SDS011;2540;50.928;6.856;2023-09-18T04:38:06;13.37;;;4.27;;
5042;SDS011;2540;50.928;6.856;2023-09-18T04:40:32;16.33;;;5.07;;
5042;SDS011;2540;50.928;6.856;2023-09-18T04:42:58;14.00;;;4.20;;
5042;SDS011;2540;50.928;6.856;2023-09-18T04:45:23;6.33;;;3.90;;
5042;SDS011;2540;50.928;6.856;2023-09-18T04:47:49;8.20;;;3.70;;
5042;SDS011;2540;50.928;6.856;2023-09-18T04:50:15;11.70;;;4.60;;
5042;SDS011;2540;50.928;6.856;2023-09-18T04:52:40;14.77;;;3.77;;
5042;SDS011;2540;50.928;6.856;2023-09-18T04:55:06;11.93;;;4.40;;
5042;SDS011;2540;50.928;6.856;2023-09-18T04:57:31;11.60;;;4.77;;
5042;SDS011;2540;50.928;6.856;2023-09-18T04:59:57;10.80;;;4.90;;
5042;SDS011;2540;50.928;6.856;2023-09-18T05:02:22;14.70;;;5.30;;
5042;SDS011;2540;50.928;6.856;2023-09-18T05:04:50;15.43;;;5.63;;
5042;SDS011;2540;50.928;6.856;2023-09-18T05:07:15;10.20;;;5.30;;
5042;SDS011;2540;50.928;6.856;2023-09-18T05:09:41;7.53;;;4.60;;
5042;SDS011;2540;50.928;6.856;2023-09-18T05:12:06;14.10;;;5.20;;
5042;SDS011;2540;50.928;6.856;2023-09-18T05:14:38;19.90;;;5.30;;
5042;SDS011;2540;50.928;6.856;2023-09-18T05:17:03;11.57;;;4.73;;
5042;SDS011;2540;50.928;6.856;2023-09-18T05:19:29;12.10;;;4.60;;
5042;SDS011;2540;50.928;6.856;2023-09-18T05:21:54;11.70;;;3.97;;
5042;SDS011;2540;50.928;6.856;2023-09-18T05:24:19;14.03;;;4.80;;
5042;SDS011;2540;50.928;6.856;2023-09-18T05:26:51;8.20;;;4.70;;
5042;SDS011;2540;50.928;6.856;2023-09-18T05:29:18;8.23;;;4.30;;
5042;SDS011;2540;50.928;6.856;2023-09-18T05:31:43;16.90;;;4.40;;
5042;SDS011;2540;50.928;6.856;2023-09-18T05:34:09;11.17;;;4.70;;
5042;SDS011;2540;50.928;6.856;2023-09-18T05:36:35;21.10;;;4.00;;
5042;SDS011;2540;50.928;6.856;2023-09-18T05:39:00;17.37;;;4.43;;
5042;SDS011;2540;50.928;6.856;2023-09-18T05:41:25;14.73;;;4.47;;
5042;SDS011;2540;50.928;6.856;2023-09-18T05:43:53;11.53;;;3.87;;
5042;SDS011;2540;50.928;6.856;2023-09-18T05:46:19;8.03;;;4.23;;
5042;SDS011;2540;50.928;6.856;2023-09-18T05:48:44;18.13;;;4.97;;
5042;SDS011;2540;50.928;6.856;2023-09-18T05:51:09;19.07;;;3.60;;
5042;SDS011;2540;50.928;6.856;2023-09-18T05:53:35;12.10;;;4.50;;
5042;SDS011;2540;50.928;6.856;2023-09-18T05:56:00;10.87;;;3.83;;
5042;SDS011;2540;50.928;6.856;2023-09-18T05:58:28;6.70;;;3.67;;
5042;SDS011;2540;50.928;6.856;2023-09-18T06:00:57;8.33;;;3.60;;
5042;SDS011;2540;50.928;6.856;2023-09-18T06:03:25;8.43;;;3.80;;
5042;SDS011;2540;50.928;6.856;2023-09-18T06:05:50;13.03;;;4.03;;
5042;SDS011;2540;50.928;6.856;2023-09-18T06:08:16;10.60;;;4.20;;
5042;SDS011;2540;50.928;6.856;2023-09-18T06:10:41;7.73;;;3.90;;
5042;SDS011;2540;50.928;6.856;2023-09-18T06:13:06;10.83;;;4.40;;
5042;SDS011;2540;50.928;6.856;2023-09-18T06:15:32;6.40;;;3.50;;
5042;SDS011;2540;50.928;6.856;2023-09-18T06:17:57;11.90;;;4.60;;
5042;SDS011;2540;50.928;6.856;2023-09-18T06:20:22;5.93;;;3.30;;
5042;SDS011;2540;50.928;6.856;2023-09-18T06:22:48;10.67;;;4.03;;
5042;SDS011;2540;50.928;6.856;2023-09-18T06:25:13;6.80;;;3.37;;
5042;SDS011;2540;50.928;6.856;2023-09-18T06:27:39;9.20;;;3.60;;
5042;SDS011;2540;50.928;6.856;2023-09-18T06:30:05;6.33;;;2.90;;
5042;SDS011;2540;50.928;6.856;2023-09-18T06:32:31;9.70;;;2.27;;
5042;SDS011;2540;50.928;6.856;2023-09-18T06:34:56;4.80;;;2.00;;
5042;SDS011;2540;50.928;6.856;2023-09-18T06:37:23;5.97;;;2.30;;
5042;SDS011;2540;50.928;6.856;2023-09-18T06:39:48;2.70;;;1.97;;
5042;SDS011;2540;50.928;6.856;2023-09-18T06:42:14;7.27;;;2.23;;
5042;SDS011;2540;50.928;6.856;2023-09-18T06:44:39;4.33;;;1.77;;
5042;SDS011;2540;50.928;6.856;2023-09-18T06:47:04;9.43;;;2.17;;
5042;SDS011;2540;50.928;6.856;2023-09-18T06:49:30;3.33;;;1.90;;
5042;SDS011;2540;50.928;6.856;2023-09-18T06:51:55;5.57;;;2.20;;
5042;SDS011;2540;50.928;6.856;2023-09-18T06:54:21;6.67;;;2.57;;
5042;SDS011;2540;50.928;6.856;2023-09-18T06:56:46;5.67;;;2.30;;
5042;SDS011;2540;50.928;6.856;2023-09-18T06:59:12;4.83;;;1.90;;
5042;SDS011;2540;50.928;6.856;2023-09-18T07:01:37;4.90;;;1.60;;
5042;SDS011;2540;50.928;6.856;2023-09-18T07:04:03;4.37;;;2.07;;
5042;SDS011;2540;50.928;6.856;2023-09-18T07:06:29;7.57;;;2.03;;
5042;SDS011;2540;50.928;6.856;2023-09-18T07:08:55;4.20;;;1.87;;
5042;SDS011;2540;50.928;6.856;2023-09-18T07:11:20;7.90;;;2.20;;
5042;SDS011;2540;50.928;6.856;2023-09-18T07:13:45;7.47;;;2.60;;
5042;SDS011;2540;50.928;6.856;2023-09-18T07:16:11;7.97;;;2.27;;
5042;SDS011;2540;50.928;6.856;2023-09-18T07:18:36;5.43;;;1.60;;
5042;SDS011;2540;50.928;6.856;2023-09-18T07:21:02;4.20;;;2.20;;
5042;SDS011;2540;50.928;6.856;2023-09-18T07:23:27;4.50;;;2.13;;
5042;SDS011;2540;50.928;6.856;2023-09-18T07:25:53;3.97;;;1.50;;
5042;SDS011;2540;50.928;6.856;2023-09-18T07:28:18;3.37;;;1.80;;
5042;SDS011;2540;50.928;6.856;2023-09-18T07:30:44;3.10;;;1.80;;
5042;SDS011;2540;50.928;6.856;2023-09-18T07:33:10;3.73;;;1.63;;
5042;SDS011;2540;50.928;6.856;2023-09-18T07:35:36;4.17;;;1.77;;
5042;SDS011;2540;50.928;6.856;2023-09-18T07:38:01;4.93;;;1.60;;
5042;SDS011;2540;50.928;6.856;2023-09-18T07:40:27;3.93;;;1.77;;
5042;SDS011;2540;50.928;6.856;2023-09-18T07:42:52;5.10;;;1.50;;
5042;SDS011;2540;50.928;6.856;2023-09-18T07:45:20;2.33;;;1.27;;
5042;SDS011;2540;50.928;6.856;2023-09-18T07:47:47;2.87;;;1.60;;
5042;SDS011;2540;50.928;6.856;2023-09-18T07:50:12;1.77;;;1.40;;
5042;SDS011;2540;50.928;6.856;2023-09-18T07:52:38;1.97;;;1.57;;
5042;SDS011;2540;50.928;6.856;2023-09-18T07:55:03;8.40;;;1.80;;
5042;SDS011;2540;50.928;6.856;2023-09-18T07:57:29;3.53;;;1.40;;
5042;SDS011;2540;50.928;6.856;2023-09-18T07:59:57;4.70;;;1.50;;
5042;SDS011;2540;50.928;6.856;2023-09-18T08:02:31;3.70;;;1.50;;
5042;SDS011;2540;50.928;6.856;2023-09-18T08:04:57;7.07;;;1.80;;
5042;SDS011;2540;50.928;6.856;2023-09-18T08:07:35;2.47;;;1.83;;
5042;SDS011;2540;50.928;6.856;2023-09-18T08:10:02;3.27;;;1.60;;
5042;SDS011;2540;50.928;6.856;2023-09-18T08:12:31;3.10;;;1.43;;
5042;SDS011;2540;50.928;6.856;2023-09-18T08:14:56;5.20;;;1.13;;
5042;SDS011;2540;50.928;6.856;2023-09-18T08:17:23;3.00;;;1.30;;
5042;SDS011;2540;50.928;6.856;2023-09-18T08:19:50;4.07;;;1.30;;
5042;SDS011;2540;50.928;6.856;2023-09-18T08:22:17;1.67;;;1.33;;
5042;SDS011;2540;50.928;6.856;2023-09-18T08:24:44;3.03;;;1.60;;
5042;SDS011;2540;50.928;6.856;2023-09-18T08:27:10;11.43;;;1.63;;
5042;SDS011;2540;50.928;6.856;2023-09-18T08:29:36;2.37;;;1.37;;
5042;SDS011;2540;50.928;6.856;2023-09-18T08:32:01;2.90;;;1.43;;
5042;SDS011;2540;50.928;6.856;2023-09-18T08:34:27;2.50;;;1.23;;
5042;SDS011;2540;50.928;6.856;2023-09-18T08:36:52;3.63;;;1.47;;
5042;SDS011;2540;50.928;6.856;2023-09-18T08:39:17;3.57;;;1.70;;
5042;SDS011;2540;50.928;6.856;2023-09-18T08:41:43;6.23;;;1.37;;
5042;SDS011;2540;50.928;6.856;2023-09-18T08:44:09;4.93;;;1.70;;
5042;SDS011;2540;50.928;6.856;2023-09-18T08:46:34;3.70;;;1.33;;
5042;SDS011;2540;50.928;6.856;2023-09-18T08:49:01;1.70;;;1.33;;
5042;SDS011;2540;50.928;6.856;2023-09-18T08:51:27;2.30;;;1.37;;
5042;SDS011;2540;50.928;6.856;2023-09-18T08:53:54;7.93;;;1.67;;
5042;SDS011;2540;50.928;6.856;2023-09-18T08:56:19;1.53;;;1.20;;
5042;SDS011;2540;50.928;6.856;2023-09-18T08:58:46;1.43;;;1.20;;
5042;SDS011;2540;50.928;6.856;2023-09-18T09:01:11;5.13;;;1.43;;
5042;SDS011;2540;50.928;6.856;2023-09-18T09:03:37;6.23;;;1.50;;
5042;SDS011;2540;50.928;6.856;2023-09-18T09:06:07;1.70;;;1.03;;
5042;SDS011;2540;50.928;6.856;2023-09-18T09:08:33;2.00;;;1.30;;
5042;SDS011;2540;50.928;6.856;2023-09-18T09:10:59;3.33;;;1.23;;
5042;SDS011;2540;50.928;6.856;2023-09-18T09:13:25;3.63;;;1.20;;
5042;SDS011;2540;50.928;6.856;2023-09-18T09:15:54;3.23;;;1.30;;
5042;SDS011;2540;50.928;6.856;2023-09-18T09:18:23;2.17;;;1.43;;
5042;SDS011;2540;50.928;6.856;2023-09-18T09:23:22;2.37;;;1.30;;
5042;SDS011;2540;50.928;6.856;2023-09-18T09:25:47;14.57;;;1.30;;
5042;SDS011;2540;50.928;6.856;2023-09-18T09:28:13;4.47;;;1.83;;
5042;SDS011;2540;50.928;6.856;2023-09-18T09:30:38;2.13;;;1.30;;
5042;SDS011;2540;50.928;6.856;2023-09-18T09:33:04;5.37;;;2.20;;
5042;SDS011;2540;50.928;6.856;2023-09-18T09:35:34;2.57;;;1.50;;
5042;SDS011;2540;50.928;6.856;2023-09-18T09:40:26;1.23;;;1.10;;
5042;SDS011;2540;50.928;6.856;2023-09-18T09:42:54;2.23;;;1.37;;
5042;SDS011;2540;50.928;6.856;2023-09-18T09:45:25;4.30;;;1.10;;
5042;SDS011;2540;50.928;6.856;2023-09-18T09:47:55;3.00;;;1.53;;
5042;SDS011;2540;50.928;6.856;2023-09-18T09:50:21;2.40;;;1.20;;
5042;SDS011;2540;50.928;6.856;2023-09-18T09:52:47;4.40;;;1.70;;
5042;SDS011;2540;50.928;6.856;2023-09-18T09:55:31;4.97;;;1.40;;
5042;SDS011;2540;50.928;6.856;2023-09-18T09:57:58;3.13;;;1.50;;
5042;SDS011;2540;50.928;6.856;2023-09-18T10:00:32;1.50;;;1.20;;
5042;SDS011;2540;50.928;6.856;2023-09-18T10:03:06;5.30;;;1.43;;
5042;SDS011;2540;50.928;6.856;2023-09-18T10:05:34;2.60;;;1.70;;
5042;SDS011;2540;50.928;6.856;2023-09-18T10:08:06;2.80;;;1.27;;
5042;SDS011;2540;50.928;6.856;2023-09-18T10:10:36;4.60;;;1.40;;
5042;SDS011;2540;50.928;6.856;2023-09-18T10:13:09;3.03;;;1.57;;
5042;SDS011;2540;50.928;6.856;2023-09-18T10:15:36;5.70;;;1.57;;
5042;SDS011;2540;50.928;6.856;2023-09-18T10:18:04;3.73;;;2.17;;
5042;SDS011;2540;50.928;6.856;2023-09-18T10:20:33;3.00;;;1.23;;
5042;SDS011;2540;50.928;6.856;2023-09-18T10:23:02;1.70;;;1.40;;
5042;SDS011;2540;50.928;6.856;2023-09-18T10:25:30;3.50;;;1.60;;
5042;SDS011;2540;50.928;6.856;2023-09-18T10:27:57;2.27;;;1.20;;
5042;SDS011;2540;50.928;6.856;2023-09-18T10:30:27;4.13;;;1.43;;
5042;SDS011;2540;50.928;6.856;2023-09-18T10:32:54;2.40;;;1.30;;
5042;SDS011;2540;50.928;6.856;2023-09-18T10:35:22;2.40;;;1.20;;
5042;SDS011;2540;50.928;6.856;2023-09-18T10:37:48;2.13;;;1.63;;
5042;SDS011;2540;50.928;6.856;2023-09-18T10:40:16;2.43;;;1.33;;
5042;SDS011;2540;50.928;6.856;2023-09-18T10:42:42;8.00;;;1.20;;
5042;SDS011;2540;50.928;6.856;2023-09-18T10:45:08;2.03;;;1.30;;
5042;SDS011;2540;50.928;6.856;2023-09-18T10:47:41;4.10;;;1.10;;
5042;SDS011;2540;50.928;6.856;2023-09-18T10:50:08;1.67;;;1.10;;
5042;SDS011;2540;50.928;6.856;2023-09-18T10:52:34;2.80;;;1.30;;
5042;SDS011;2540;50.928;6.856;2023-09-18T10:55:01;3.47;;;1.47;;
5042;SDS011;2540;50.928;6.856;2023-09-18T10:57:32;4.10;;;1.37;;
5042;SDS011;2540;50.928;6.856;2023-09-18T10:59:58;1.80;;;1.20;;
5042;SDS011;2540;50.928;6.856;2023-09-18T11:02:24;4.00;;;1.37;;
5042;SDS011;2540;50.928;6.856;2023-09-18T11:04:52;2.00;;;1.40;;
5042;SDS011;2540;50.928;6.856;2023-09-18T11:07:20;2.17;;;1.20;;
5042;SDS011;2540;50.928;6.856;2023-09-18T11:09:46;1.40;;;1.20;;
5042;SDS011;2540;50.928;6.856;2023-09-18T11:12:12;3.00;;;1.33;;
5042;SDS011;2540;50.928;6.856;2023-09-18T11:17:30;2.70;;;1.70;;
5042;SDS011;2540;50.928;6.856;2023-09-18T11:20:05;3.70;;;1.10;;
5042;SDS011;2540;50.928;6.856;2023-09-18T11:22:45;2.57;;;1.57;;
5042;SDS011;2540;50.928;6.856;2023-09-18T11:25:28;4.00;;;1.33;;
5042;SDS011;2540;50.928;6.856;2023-09-18T11:28:03;1.80;;;1.20;;
5042;SDS011;2540;50.928;6.856;2023-09-18T11:30:33;2.47;;;1.00;;
5042;SDS011;2540;50.928;6.856;2023-09-18T11:33:00;2.00;;;1.47;;
5042;SDS011;2540;50.928;6.856;2023-09-18T11:35:27;1.70;;;1.10;;
5042;SDS011;2540;50.928;6.856;2023-09-18T11:38:06;2.00;;;1.20;;
5042;SDS011;2540;50.928;6.856;2023-09-18T11:40:35;2.10;;;1.20;;
5042;SDS011;2540;50.928;6.856;2023-09-18T11:45:50;1.90;;;1.20;;
5042;SDS011;2540;50.928;6.856;2023-09-18T11:48:16;3.03;;;1.27;;
5042;SDS011;2540;50.928;6.856;2023-09-18T11:50:42;1.80;;;1.13;;
5042;SDS011;2540;50.928;6.856;2023-09-18T11:53:09;2.10;;;1.43;;
5042;SDS011;2540;50.928;6.856;2023-09-18T11:55:35;4.57;;;1.70;;
5042;SDS011;2540;50.928;6.856;2023-09-18T11:58:02;4.07;;;1.20;;
5042;SDS011;2540;50.928;6.856;2023-09-18T12:00:29;5.43;;;1.60;;
5042;SDS011;2540;50.928;6.856;2023-09-18T12:02:55;3.97;;;1.63;;
5042;SDS011;2540;50.928;6.856;2023-09-18T12:05:20;3.00;;;1.43;;
5042;SDS011;2540;50.928;6.856;2023-09-18T12:07:46;1.67;;;1.30;;
5042;SDS011;2540;50.928;6.856;2023-09-18T12:10:15;3.80;;;1.23;;
5042;SDS011;2540;50.928;6.856;2023-09-18T12:12:44;1.37;;;1.10;;
5042;SDS011;2540;50.928;6.856;2023-09-18T12:15:28;3.67;;;1.70;;
5042;SDS011;2540;50.928;6.856;2023-09-18T12:17:55;5.80;;;1.50;;
5042;SDS011;2540;50.928;6.856;2023-09-18T12:20:20;3.67;;;1.50;;
5042;SDS011;2540;50.928;6.856;2023-09-18T12:22:49;1.47;;;1.10;;
5042;SDS011;2540;50.928;6.856;2023-09-18T12:25:18;2.77;;;1.40;;
5042;SDS011;2540;50.928;6.856;2023-09-18T12:27:44;3.00;;;1.47;;
5042;SDS011;2540;50.928;6.856;2023-09-18T12:30:09;3.90;;;1.70;;
5042;SDS011;2540;50.928;6.856;2023-09-18T12:32:36;2.17;;;1.60;;
5042;SDS011;2540;50.928;6.856;2023-09-18T12:35:02;3.50;;;1.80;;
5042;SDS011;2540;50.928;6.856;2023-09-18T12:37:31;4.50;;;1.60;;
5042;SDS011;2540;50.928;6.856;2023-09-18T12:39:57;2.50;;;1.80;;
5042;SDS011;2540;50.928;6.856;2023-09-18T12:42:22;5.00;;;1.77;;
5042;SDS011;2540;50.928;6.856;2023-09-18T12:44:48;6.90;;;1.57;;
5042;SDS011;2540;50.928;6.856;2023-09-18T12:47:14;1.60;;;1.27;;
5042;SDS011;2540;50.928;6.856;2023-09-18T12:49:40;4.00;;;1.40;;
5042;SDS011;2540;50.928;6.856;2023-09-18T12:52:05;1.50;;;1.00;;
5042;SDS011;2540;50.928;6.856;2023-09-18T12:54:39;2.43;;;1.40;;
5042;SDS011;2540;50.928;6.856;2023-09-18T12:57:10;2.17;;;1.77;;
5042;SDS011;2540;50.928;6.856;2023-09-18T12:59:35;1.50;;;1.20;;
5042;SDS011;2540;50.928;6.856;2023-09-18T13:02:02;1.10;;;1.00;;
5042;SDS011;2540;50.928;6.856;2023-09-18T13:04:32;2.80;;;1.63;;
5042;SDS011;2540;50.928;6.856;2023-09-18T13:07:14;2.37;;;1.37;;
5042;SDS011;2540;50.928;6.856;2023-09-18T13:09:40;1.37;;;1.07;;
5042;SDS011;2540;50.928;6.856;2023-09-18T13:12:05;5.13;;;1.57;;
5042;SDS011;2540;50.928;6.856;2023-09-18T13:17:23;2.43;;;1.30;;
5042;SDS011;2540;50.928;6.856;2023-09-18T13:19:49;2.90;;;1.60;;
5042;SDS011;2540;50.928;6.856;2023-09-18T13:22:22;2.47;;;1.50;;
5042;SDS011;2540;50.928;6.856;2023-09-18T13:24:54;2.27;;;1.30;;
5042;SDS011;2540;50.928;6.856;2023-09-18T13:27:20;5.13;;;2.10;;
5042;SDS011;2540;50.928;6.856;2023-09-18T13:29:45;2.20;;;1.20;;
5042;SDS011;2540;50.928;6.856;2023-09-18T13:32:11;2.37;;;1.50;;
5042;SDS011;2540;50.928;6.856;2023-09-18T13:34:36;2.50;;;1.50;;
5042;SDS011;2540;50.928;6.856;2023-09-18T13:37:02;2.57;;;1.47;;
5042;SDS011;2540;50.928;6.856;2023-09-18T13:39:27;3.80;;;1.60;;
5042;SDS011;2540;50.928;6.856;2023-09-18T13:41:53;2.07;;;1.40;;
5042;SDS011;2540;50.928;6.856;2023-09-18T13:44:18;2.70;;;1.40;;
5042;SDS011;2540;50.928;6.856;2023-09-18T13:46:43;2.97;;;1.30;;
5042;SDS011;2540;50.928;6.856;2023-09-18T13:49:09;2.53;;;1.67;;
5042;SDS011;2540;50.928;6.856;2023-09-18T13:51:34;3.87;;;1.50;;
5042;SDS011;2540;50.928;6.856;2023-09-18T13:53:59;2.87;;;1.50;;
5042;SDS011;2540;50.928;6.856;2023-09-18T13:56:25;2.07;;;1.37;;
5042;SDS011;2540;50.928;6.856;2023-09-18T13:58:55;2.83;;;1.73;;
5042;SDS011;2540;50.928;6.856;2023-09-18T14:01:21;2.10;;;1.20;;
5042;SDS011;2540;50.928;6.856;2023-09-18T14:03:47;1.87;;;1.40;;
5042;SDS011;2540;50.928;6.856;2023-09-18T14:06:12;2.07;;;1.20;;
5042;SDS011;2540;50.928;6.856;2023-09-18T14:08:37;2.60;;;1.30;;
5042;SDS011;2540;50.928;6.856;2023-09-18T14:11:05;3.87;;;1.87;;
5042;SDS011;2540;50.928;6.856;2023-09-18T14:13:31;1.63;;;1.10;;
5042;SDS011;2540;50.928;6.856;2023-09-18T14:15:57;2.60;;;1.53;;
5042;SDS011;2540;50.928;6.856;2023-09-18T14:18:23;4.30;;;1.27;;
5042;SDS011;2540;50.928;6.856;2023-09-18T14:20:48;1.50;;;1.23;;
5042;SDS011;2540;50.928;6.856;2023-09-18T14:23:13;2.00;;;1.43;;
5042;SDS011;2540;50.928;6.856;2023-09-18T14:25:39;9.03;;;1.60;;
5042;SDS011;2540;50.928;6.856;2023-09-18T14:28:04;4.73;;;1.33;;
5042;SDS011;2540;50.928;6.856;2023-09-18T14:30:29;5.60;;;1.37;;
5042;SDS011;2540;50.928;6.856;2023-09-18T14:32:56;1.83;;;1.10;;
5042;SDS011;2540;50.928;6.856;2023-09-18T14:35:22;13.27;;;1.97;;
5042;SDS011;2540;50.928;6.856;2023-09-18T14:37:48;2.60;;;1.30;;
5042;SDS011;2540;50.928;6.856;2023-09-18T14:40:14;3.00;;;1.53;;
5042;SDS011;2540;50.928;6.856;2023-09-18T14:42:39;4.13;;;1.40;;
5042;SDS011;2540;50.928;6.856;2023-09-18T14:45:05;3.03;;;1.60;;
5042;SDS011;2540;50.928;6.856;2023-09-18T14:47:30;1.60;;;1.20;;
5042;SDS011;2540;50.928;6.856;2023-09-18T14:49:56;3.33;;;1.20;;
5042;SDS011;2540;50.928;6.856;2023-09-18T14:52:23;4.70;;;1.43;;
5042;SDS011;2540;50.928;6.856;2023-09-18T14:54:50;1.93;;;1.47;;
5042;SDS011;2540;50.928;6.856;2023-09-18T14:57:16;2.03;;;1.13;;
5042;SDS011;2540;50.928;6.856;2023-09-18T14:59:42;5.63;;;1.67;;
5042;SDS011;2540;50.928;6.856;2023-09-18T15:02:12;2.23;;;1.60;;
5042;SDS011;2540;50.928;6.856;2023-09-18T15:04:37;3.93;;;1.40;;
5042;SDS011;2540;50.928;6.856;2023-09-18T15:07:03;2.03;;;1.23;;
5042;SDS011;2540;50.928;6.856;2023-09-18T15:09:28;4.57;;;1.47;;
5042;SDS011;2540;50.928;6.856;2023-09-18T15:11:53;3.73;;;1.40;;
5042;SDS011;2540;50.928;6.856;2023-09-18T15:14:18;1.60;;;1.30;;
5042;SDS011;2540;50.928;6.856;2023-09-18T15:16:44;2.53;;;1.60;;
5042;SDS011;2540;50.928;6.856;2023-09-18T15:19:09;2.10;;;1.40;;
5042;SDS011;2540;50.928;6.856;2023-09-18T15:21:35;6.13;;;1.57;;